sensor_id;sensor_type;location;lat;lon;timestamp;temperature;humidity
7472;DHT22;3777;48.722;8.110;2023-07-24T00:02:06;19.50;99.90
7472;DHT22;3777;48.722;8.110;2023-07-24T00:04:35;19.50;99.90
7472;DHT22;3777;48.722;8.110;2023-07-24T00:07:02;19.50;99.90
7472;DHT22;3777;48.722;8.110;2023-07-24T00:09:29;19.50;99.90
7472;DHT22;3777;48.722;8.110;2023-07-24T00:11:56;19.40;99.90
7472;DHT22;3777;48.722;8.110;2023-07-24T00:14:23;19.40;99.90
7472;DHT22;3777;48.722;8.110;2023-07-24T00:16:50;19.40;99.90
7472;DHT22;3777;48.722;8.110;2023-07-24T00:19:17;19.40;99.90
7472;DHT22;3777;48.722;8.110;2023-07-24T00:21:46;19.40;99.90
7472;DHT22;3777;48.722;8.110;2023-07-24T00:24:13;19.30;99.90
7472;DHT22;3777;48.722;8.110;2023-07-24T00:26:40;19.30;99.90
7472;DHT22;3777;48.722;8.110;2023-07-24T00:29:07;19.30;99.90
7472;DHT22;3777;48.722;8.110;2023-07-24T00:31:34;19.20;99.90
7472;DHT22;3777;48.722;8.110;2023-07-24T00:34:01;19.20;99.90
7472;DHT22;3777;48.722;8.110;2023-07-24T00:36:28;19.20;99.90
7472;DHT22;3777;48.722;8.110;2023-07-24T00:38:56;19.10;99.90
7472;DHT22;3777;48.722;8.110;2023-07-24T00:41:23;19.10;99.90
7472;DHT22;3777;48.722;8.110;2023-07-24T00:43:50;19.10;99.90
7472;DHT22;3777;48.722;8.110;2023-07-24T00:46:17;19.10;99.90
7472;DHT22;3777;48.722;8.110;2023-07-24T00:48:44;19.10;99.90
7472;DHT22;3777;48.722;8.110;2023-07-24T00:51:11;19.10;99.90
7472;DHT22;3777;48.722;8.110;2023-07-24T00:53:38;19.10;99.90
7472;DHT22;3777;48.722;8.110;2023-07-24T00:56:07;19.00;99.90
7472;DHT22;3777;48.722;8.110;2023-07-24T00:58:37;19.00;99.90
7472;DHT22;3777;48.722;8.110;2023-07-24T01:01:04;19.00;99.90
7472;DHT22;3777;48.722;8.110;2023-07-24T01:03:33;19.00;99.90
7472;DHT22;3777;48.722;8.110;2023-07-24T01:06:01;19.00;99.90
7472;DHT22;3777;48.722;8.110;2023-07-24T01:08:29;18.90;99.90
7472;DHT22;3777;48.722;8.110;2023-07-24T01:10:57;18.90;99.90
7472;DHT22;3777;48.722;8.110;2023-07-24T01:13:34;18.90;99.90
7472;DHT22;3777;48.722;8.110;2023-07-24T01:16:06;18.90;99.90
7472;DHT22;3777;48.722;8.110;2023-07-24T01:18:35;18.90;99.90
7472;DHT22;3777;48.722;8.110;2023-07-24T01:21:05;18.80;99.90
7472;DHT22;3777;48.722;8.110;2023-07-24T01:23:41;18.80;99.90
7472;DHT22;3777;48.722;8.110;2023-07-24T01:26:12;18.80;99.90
7472;DHT22;3777;48.722;8.110;2023-07-24T01:28:39;18.70;99.90
7472;DHT22;3777;48.722;8.110;2023-07-24T01:31:06;18.70;99.90
7472;DHT22;3777;48.722;8.110;2023-07-24T01:33:33;18.70;99.90
7472;DHT22;3777;48.722;8.110;2023-07-24T01:36:03;18.70;99.90
7472;DHT22;3777;48.722;8.110;2023-07-24T01:38:31;18.70;99.90
7472;DHT22;3777;48.722;8.110;2023-07-24T01:41:01;18.70;99.90
7472;DHT22;3777;48.722;8.110;2023-07-24T01:43:31;18.60;99.90
7472;DHT22;3777;48.722;8.110;2023-07-24T01:45:58;18.70;99.90
7472;DHT22;3777;48.722;8.110;2023-07-24T01:48:25;18.70;99.90
7472;DHT22;3777;48.722;8.110;2023-07-24T01:50:52;18.70;99.90
7472;DHT22;3777;48.722;8.110;2023-07-24T01:53:19;18.70;99.90
7472;DHT22;3777;48.722;8.110;2023-07-24T01:55:46;18.70;99.90
7472;DHT22;3777;48.722;8.110;2023-07-24T01:58:13;18.70;99.90
7472;DHT22;3777;48.722;8.110;2023-07-24T02:00:42;18.70;99.90
7472;DHT22;3777;48.722;8.110;2023-07-24T02:03:09;18.70;99.90
7472;DHT22;3777;48.722;8.110;2023-07-24T02:05:36;18.80;99.90
7472;DHT22;3777;48.722;8.110;2023-07-24T02:08:04;18.80;99.90
7472;DHT22;3777;48.722;8.110;2023-07-24T02:10:31;18.80;99.90
7472;DHT22;3777;48.722;8.110;2023-07-24T02:12:58;18.80;99.90
7472;DHT22;3777;48.722;8.110;2023-07-24T02:15:24;18.80;99.90
7472;DHT22;3777;48.722;8.110;2023-07-24T02:17:53;18.80;99.90
7472;DHT22;3777;48.722;8.110;2023-07-24T02:20:20;18.80;99.90
7472;DHT22;3777;48.722;8.110;2023-07-24T02:22:47;18.80;99.90
7472;DHT22;3777;48.722;8.110;2023-07-24T02:25:15;18.80;99.90
7472;DHT22;3777;48.722;8.110;2023-07-24T02:27:41;18.80;99.90
7472;DHT22;3777;48.722;8.110;2023-07-24T02:30:09;18.90;99.90
7472;DHT22;3777;48.722;8.110;2023-07-24T02:32:36;18.90;99.90
7472;DHT22;3777;48.722;8.110;2023-07-24T02:35:06;18.90;99.90
7472;DHT22;3777;48.722;8.110;2023-07-24T02:37:33;19.00;99.90
7472;DHT22;3777;48.722;8.110;2023-07-24T02:40:00;19.00;99.90
7472;DHT22;3777;48.722;8.110;2023-07-24T02:42:27;19.10;99.90
7472;DHT22;3777;48.722;8.110;2023-07-24T02:44:54;19.10;99.90
7472;DHT22;3777;48.722;8.110;2023-07-24T02:47:20;19.10;99.90
7472;DHT22;3777;48.722;8.110;2023-07-24T02:49:47;19.10;99.90
7472;DHT22;3777;48.722;8.110;2023-07-24T02:52:16;19.00;99.90
7472;DHT22;3777;48.722;8.110;2023-07-24T02:54:43;19.00;99.90
7472;DHT22;3777;48.722;8.110;2023-07-24T02:57:10;19.00;99.90
7472;DHT22;3777;48.722;8.110;2023-07-24T02:59:37;19.00;99.90
7472;DHT22;3777;48.722;8.110;2023-07-24T03:02:04;19.00;99.90
7472;DHT22;3777;48.722;8.110;2023-07-24T03:04:31;18.90;99.90
7472;DHT22;3777;48.722;8.110;2023-07-24T03:06:58;18.90;99.90
7472;DHT22;3777;48.722;8.110;2023-07-24T03:09:26;18.90;99.90
7472;DHT22;3777;48.722;8.110;2023-07-24T03:11:53;18.90;99.90
7472;DHT22;3777;48.722;8.110;2023-07-24T03:14:20;18.80;99.90
7472;DHT22;3777;48.722;8.110;2023-07-24T03:16:47;18.80;99.90
7472;DHT22;3777;48.722;8.110;2023-07-24T03:19:14;18.80;99.90
7472;DHT22;3777;48.722;8.110;2023-07-24T03:21:43;18.80;99.90
7472;DHT22;3777;48.722;8.110;2023-07-24T03:24:10;18.80;99.90
7472;DHT22;3777;48.722;8.110;2023-07-24T03:26:38;18.70;99.90
7472;DHT22;3777;48.722;8.110;2023-07-24T03:29:05;18.60;99.90
7472;DHT22;3777;48.722;8.110;2023-07-24T03:31:32;18.60;99.90
7472;DHT22;3777;48.722;8.110;2023-07-24T03:33:59;18.60;99.90
7472;DHT22;3777;48.722;8.110;2023-07-24T03:36:26;18.70;99.90
7472;DHT22;3777;48.722;8.110;2023-07-24T03:38:53;18.70;99.90
7472;DHT22;3777;48.722;8.110;2023-07-24T03:41:20;18.70;99.90
7472;DHT22;3777;48.722;8.110;2023-07-24T03:43:48;18.70;99.90
7472;DHT22;3777;48.722;8.110;2023-07-24T03:46:15;18.70;99.90
7472;DHT22;3777;48.722;8.110;2023-07-24T03:48:42;18.70;99.90
7472;DHT22;3777;48.722;8.110;2023-07-24T03:51:08;18.70;99.90
7472;DHT22;3777;48.722;8.110;2023-07-24T03:53:35;18.80;99.90
7472;DHT22;3777;48.722;8.110;2023-07-24T03:56:03;18.80;99.90
7472;DHT22;3777;48.722;8.110;2023-07-24T03:58:30;18.80;99.90
7472;DHT22;3777;48.722;8.110;2023-07-24T04:00:58;18.80;99.90
7472;DHT22;3777;48.722;8.110;2023-07-24T04:03:25;18.90;99.90
7472;DHT22;3777;48.722;8.110;2023-07-24T04:05:52;18.90;99.90
7472;DHT22;3777;48.722;8.110;2023-07-24T04:08:19;18.90;99.90
7472;DHT22;3777;48.722;8.110;2023-07-24T04:10:46;18.90;99.90
7472;DHT22;3777;48.722;8.110;2023-07-24T04:13:13;19.00;99.90
7472;DHT22;3777;48.722;8.110;2023-07-24T04:15:40;19.00;99.90
7472;DHT22;3777;48.722;8.110;2023-07-24T04:18:08;19.00;99.90
7472;DHT22;3777;48.722;8.110;2023-07-24T04:20:35;19.00;99.90
7472;DHT22;3777;48.722;8.110;2023-07-24T04:23:02;19.00;99.90
7472;DHT22;3777;48.722;8.110;2023-07-24T04:25:29;19.00;99.90
7472;DHT22;3777;48.722;8.110;2023-07-24T04:27:55;19.00;99.90
7472;DHT22;3777;48.722;8.110;2023-07-24T04:30:22;19.00;99.90
7472;DHT22;3777;48.722;8.110;2023-07-24T04:32:49;19.10;99.90
7472;DHT22;3777;48.722;8.110;2023-07-24T04:35:18;19.10;99.90
7472;DHT22;3777;48.722;8.110;2023-07-24T04:37:45;19.10;99.90
7472;DHT22;3777;48.722;8.110;2023-07-24T04:40:12;19.10;99.90
7472;DHT22;3777;48.722;8.110;2023-07-24T04:42:39;19.10;99.90
7472;DHT22;3777;48.722;8.110;2023-07-24T04:45:07;19.10;99.90
7472;DHT22;3777;48.722;8.110;2023-07-24T04:47:34;19.10;99.90
7472;DHT22;3777;48.722;8.110;2023-07-24T04:50:02;19.10;99.90
7472;DHT22;3777;48.722;8.110;2023-07-24T04:52:31;19.20;99.90
7472;DHT22;3777;48.722;8.110;2023-07-24T04:54:58;19.10;99.90
7472;DHT22;3777;48.722;8.110;2023-07-24T04:57:24;19.00;99.90
7472;DHT22;3777;48.722;8.110;2023-07-24T04:59:51;19.10;99.90
7472;DHT22;3777;48.722;8.110;2023-07-24T05:02:18;19.10;99.90
7472;DHT22;3777;48.722;8.110;2023-07-24T05:04:45;19.20;99.90
7472;DHT22;3777;48.722;8.110;2023-07-24T05:07:12;19.30;99.90
7472;DHT22;3777;48.722;8.110;2023-07-24T05:09:40;19.30;99.90
7472;DHT22;3777;48.722;8.110;2023-07-24T05:12:07;19.30;99.90
7472;DHT22;3777;48.722;8.110;2023-07-24T05:14:34;19.20;99.90
7472;DHT22;3777;48.722;8.110;2023-07-24T05:17:01;19.30;99.90
7472;DHT22;3777;48.722;8.110;2023-07-24T05:19:29;19.30;99.90
7472;DHT22;3777;48.722;8.110;2023-07-24T05:21:56;19.40;99.90
7472;DHT22;3777;48.722;8.110;2023-07-24T05:24:22;19.40;99.90
7472;DHT22;3777;48.722;8.110;2023-07-24T05:26:51;19.50;99.90
7472;DHT22;3777;48.722;8.110;2023-07-24T05:29:18;19.50;99.90
7472;DHT22;3777;48.722;8.110;2023-07-24T05:31:45;19.60;99.90
7472;DHT22;3777;48.722;8.110;2023-07-24T05:34:12;19.60;99.90
7472;DHT22;3777;48.722;8.110;2023-07-24T05:36:40;19.70;99.90
7472;DHT22;3777;48.722;8.110;2023-07-24T05:39:07;19.80;99.90
7472;DHT22;3777;48.722;8.110;2023-07-24T05:41:34;19.80;99.90
7472;DHT22;3777;48.722;8.110;2023-07-24T05:44:03;19.80;99.90
7472;DHT22;3777;48.722;8.110;2023-07-24T05:46:30;19.80;99.90
7472;DHT22;3777;48.722;8.110;2023-07-24T05:48:57;19.80;99.90
7472;DHT22;3777;48.722;8.110;2023-07-24T05:51:25;19.70;99.90
7472;DHT22;3777;48.722;8.110;2023-07-24T05:53:52;19.60;99.90
7472;DHT22;3777;48.722;8.110;2023-07-24T05:56:19;19.60;99.90
7472;DHT22;3777;48.722;8.110;2023-07-24T05:58:46;19.50;99.90
7472;DHT22;3777;48.722;8.110;2023-07-24T06:01:14;19.50;99.90
7472;DHT22;3777;48.722;8.110;2023-07-24T06:03:41;19.40;99.90
7472;DHT22;3777;48.722;8.110;2023-07-24T06:06:08;19.40;99.90
7472;DHT22;3777;48.722;8.110;2023-07-24T06:08:35;19.40;99.90
7472;DHT22;3777;48.722;8.110;2023-07-24T06:11:02;19.30;99.90
7472;DHT22;3777;48.722;8.110;2023-07-24T06:13:29;19.20;99.90
7472;DHT22;3777;48.722;8.110;2023-07-24T06:15:56;19.20;99.90
7472;DHT22;3777;48.722;8.110;2023-07-24T06:18:24;19.30;99.90
7472;DHT22;3777;48.722;8.110;2023-07-24T06:20:52;19.40;99.90
7472;DHT22;3777;48.722;8.110;2023-07-24T06:23:19;19.70;99.90
7472;DHT22;3777;48.722;8.110;2023-07-24T06:25:46;19.90;99.90
7472;DHT22;3777;48.722;8.110;2023-07-24T06:28:13;20.10;99.90
7472;DHT22;3777;48.722;8.110;2023-07-24T06:30:40;20.20;99.90
7472;DHT22;3777;48.722;8.110;2023-07-24T06:33:07;20.30;99.90
7472;DHT22;3777;48.722;8.110;2023-07-24T06:35:35;20.40;99.90
7472;DHT22;3777;48.722;8.110;2023-07-24T06:38:02;20.70;99.90
7472;DHT22;3777;48.722;8.110;2023-07-24T06:40:29;21.00;99.90
7472;DHT22;3777;48.722;8.110;2023-07-24T06:42:56;21.30;99.90
7472;DHT22;3777;48.722;8.110;2023-07-24T06:45:23;21.50;99.90
7472;DHT22;3777;48.722;8.110;2023-07-24T06:47:50;21.60;99.90
7472;DHT22;3777;48.722;8.110;2023-07-24T06:50:17;21.70;99.90
7472;DHT22;3777;48.722;8.110;2023-07-24T06:52:46;21.80;99.90
7472;DHT22;3777;48.722;8.110;2023-07-24T06:55:13;21.80;99.90
7472;DHT22;3777;48.722;8.110;2023-07-24T06:57:40;21.80;99.90
7472;DHT22;3777;48.722;8.110;2023-07-24T07:00:08;21.90;99.90
7472;DHT22;3777;48.722;8.110;2023-07-24T07:02:37;21.80;99.90
7472;DHT22;3777;48.722;8.110;2023-07-24T07:05:05;21.60;99.90
7472;DHT22;3777;48.722;8.110;2023-07-24T07:07:32;21.30;99.90
7472;DHT22;3777;48.722;8.110;2023-07-24T07:10:00;21.10;99.90
7472;DHT22;3777;48.722;8.110;2023-07-24T07:12:27;20.90;99.90
7472;DHT22;3777;48.722;8.110;2023-07-24T07:14:54;20.70;99.90
7472;DHT22;3777;48.722;8.110;2023-07-24T07:17:21;20.60;99.90
7472;DHT22;3777;48.722;8.110;2023-07-24T07:19:48;20.50;99.90
7472;DHT22;3777;48.722;8.110;2023-07-24T07:22:15;20.40;99.90
7472;DHT22;3777;48.722;8.110;2023-07-24T07:24:42;20.40;99.90
7472;DHT22;3777;48.722;8.110;2023-07-24T07:27:11;20.30;99.90
7472;DHT22;3777;48.722;8.110;2023-07-24T07:29:37;20.30;99.90
7472;DHT22;3777;48.722;8.110;2023-07-24T07:32:05;20.20;99.90
7472;DHT22;3777;48.722;8.110;2023-07-24T07:34:32;20.10;99.90
7472;DHT22;3777;48.722;8.110;2023-07-24T07:37:00;20.00;99.90
7472;DHT22;3777;48.722;8.110;2023-07-24T07:39:27;20.00;99.90
7472;DHT22;3777;48.722;8.110;2023-07-24T07:41:54;20.00;99.90
7472;DHT22;3777;48.722;8.110;2023-07-24T07:44:22;20.00;99.90
7472;DHT22;3777;48.722;8.110;2023-07-24T07:46:49;20.10;99.90
7472;DHT22;3777;48.722;8.110;2023-07-24T07:49:16;20.10;99.90
7472;DHT22;3777;48.722;8.110;2023-07-24T07:51:43;20.10;99.90
7472;DHT22;3777;48.722;8.110;2023-07-24T07:54:10;20.10;99.90
7472;DHT22;3777;48.722;8.110;2023-07-24T07:56:37;20.30;99.90
7472;DHT22;3777;48.722;8.110;2023-07-24T07:59:04;20.50;99.90
7472;DHT22;3777;48.722;8.110;2023-07-24T08:01:32;20.70;99.90
7472;DHT22;3777;48.722;8.110;2023-07-24T08:03:59;20.90;99.90
7472;DHT22;3777;48.722;8.110;2023-07-24T08:06:26;21.10;99.90
7472;DHT22;3777;48.722;8.110;2023-07-24T08:08:53;21.30;99.90
7472;DHT22;3777;48.722;8.110;2023-07-24T08:11:20;21.30;99.90
7472;DHT22;3777;48.722;8.110;2023-07-24T08:13:47;21.30;99.90
7472;DHT22;3777;48.722;8.110;2023-07-24T08:16:14;21.60;99.90
7472;DHT22;3777;48.722;8.110;2023-07-24T08:18:45;21.80;99.90
7472;DHT22;3777;48.722;8.110;2023-07-24T08:21:13;22.10;99.90
7472;DHT22;3777;48.722;8.110;2023-07-24T08:23:40;22.50;99.90
7472;DHT22;3777;48.722;8.110;2023-07-24T08:26:07;23.10;99.90
7472;DHT22;3777;48.722;8.110;2023-07-24T08:28:34;23.60;99.90
7472;DHT22;3777;48.722;8.110;2023-07-24T08:31:01;23.50;99.90
7472;DHT22;3777;48.722;8.110;2023-07-24T08:33:28;23.60;99.90
7472;DHT22;3777;48.722;8.110;2023-07-24T08:36:01;24.00;99.90
7472;DHT22;3777;48.722;8.110;2023-07-24T08:38:29;24.10;99.90
7472;DHT22;3777;48.722;8.110;2023-07-24T08:41:04;24.20;99.90
7472;DHT22;3777;48.722;8.110;2023-07-24T08:43:32;24.80;99.90
7472;DHT22;3777;48.722;8.110;2023-07-24T08:46:00;25.20;99.90
7472;DHT22;3777;48.722;8.110;2023-07-24T08:48:29;25.50;99.90
7472;DHT22;3777;48.722;8.110;2023-07-24T08:50:56;26.40;99.90
7472;DHT22;3777;48.722;8.110;2023-07-24T08:53:25;27.00;99.90
7472;DHT22;3777;48.722;8.110;2023-07-24T08:55:53;28.00;99.90
7472;DHT22;3777;48.722;8.110;2023-07-24T08:58:21;27.90;99.90
7472;DHT22;3777;48.722;8.110;2023-07-24T09:00:48;27.70;99.90
7472;DHT22;3777;48.722;8.110;2023-07-24T09:03:17;28.00;99.90
7472;DHT22;3777;48.722;8.110;2023-07-24T09:05:44;27.90;99.90
7472;DHT22;3777;48.722;8.110;2023-07-24T09:08:11;27.40;99.90
7472;DHT22;3777;48.722;8.110;2023-07-24T09:10:39;27.10;99.90
7472;DHT22;3777;48.722;8.110;2023-07-24T09:13:07;26.80;99.90
7472;DHT22;3777;48.722;8.110;2023-07-24T09:15:40;26.50;99.90
7472;DHT22;3777;48.722;8.110;2023-07-24T09:18:07;25.90;99.90
7472;DHT22;3777;48.722;8.110;2023-07-24T09:20:39;25.80;99.90
7472;DHT22;3777;48.722;8.110;2023-07-24T09:23:07;25.50;99.90
7472;DHT22;3777;48.722;8.110;2023-07-24T09:25:35;25.00;99.90
7472;DHT22;3777;48.722;8.110;2023-07-24T09:28:10;25.00;99.90
7472;DHT22;3777;48.722;8.110;2023-07-24T09:30:38;25.00;99.90
7472;DHT22;3777;48.722;8.110;2023-07-24T09:33:05;24.90;99.90
7472;DHT22;3777;48.722;8.110;2023-07-24T09:35:32;24.50;99.90
7472;DHT22;3777;48.722;8.110;2023-07-24T09:38:03;24.40;99.90
7472;DHT22;3777;48.722;8.110;2023-07-24T09:40:41;24.30;99.90
7472;DHT22;3777;48.722;8.110;2023-07-24T09:43:20;24.00;99.90
7472;DHT22;3777;48.722;8.110;2023-07-24T09:45:48;23.80;99.90
7472;DHT22;3777;48.722;8.110;2023-07-24T09:48:17;23.70;99.90
7472;DHT22;3777;48.722;8.110;2023-07-24T09:50:45;23.60;99.90
7472;DHT22;3777;48.722;8.110;2023-07-24T09:53:17;23.50;99.90
7472;DHT22;3777;48.722;8.110;2023-07-24T09:55:51;23.20;99.90
7472;DHT22;3777;48.722;8.110;2023-07-24T09:58:21;22.90;99.90
7472;DHT22;3777;48.722;8.110;2023-07-24T10:00:49;22.60;99.90
7472;DHT22;3777;48.722;8.110;2023-07-24T10:03:17;22.40;99.90
7472;DHT22;3777;48.722;8.110;2023-07-24T10:05:46;22.40;99.90
7472;DHT22;3777;48.722;8.110;2023-07-24T10:08:15;22.20;99.90
7472;DHT22;3777;48.722;8.110;2023-07-24T10:10:42;22.20;99.90
7472;DHT22;3777;48.722;8.110;2023-07-24T10:13:10;22.10;99.90
7472;DHT22;3777;48.722;8.110;2023-07-24T10:15:40;22.00;99.90
7472;DHT22;3777;48.722;8.110;2023-07-24T10:18:08;21.50;99.90
7472;DHT22;3777;48.722;8.110;2023-07-24T10:20:39;21.20;99.90
7472;DHT22;3777;48.722;8.110;2023-07-24T10:23:09;21.00;99.90
7472;DHT22;3777;48.722;8.110;2023-07-24T10:25:38;20.70;99.90
7472;DHT22;3777;48.722;8.110;2023-07-24T10:28:08;20.40;99.90
7472;DHT22;3777;48.722;8.110;2023-07-24T10:30:38;20.20;99.90
7472;DHT22;3777;48.722;8.110;2023-07-24T10:33:08;20.10;99.90
7472;DHT22;3777;48.722;8.110;2023-07-24T10:35:40;20.00;99.90
7472;DHT22;3777;48.722;8.110;2023-07-24T10:38:07;19.80;99.90
7472;DHT22;3777;48.722;8.110;2023-07-24T10:40:35;19.80;99.90
7472;DHT22;3777;48.722;8.110;2023-07-24T10:43:05;19.70;99.90
7472;DHT22;3777;48.722;8.110;2023-07-24T10:45:40;19.70;99.90
7472;DHT22;3777;48.722;8.110;2023-07-24T10:48:08;19.70;99.90
7472;DHT22;3777;48.722;8.110;2023-07-24T10:50:38;19.90;99.90
7472;DHT22;3777;48.722;8.110;2023-07-24T10:53:05;20.00;99.90
7472;DHT22;3777;48.722;8.110;2023-07-24T10:55:32;20.00;99.90
7472;DHT22;3777;48.722;8.110;2023-07-24T10:57:59;20.10;99.90
7472;DHT22;3777;48.722;8.110;2023-07-24T11:00:26;20.10;99.90
7472;DHT22;3777;48.722;8.110;2023-07-24T11:02:54;20.10;99.90
7472;DHT22;3777;48.722;8.110;2023-07-24T11:05:22;20.20;99.90
7472;DHT22;3777;48.722;8.110;2023-07-24T11:07:50;20.30;99.90
7472;DHT22;3777;48.722;8.110;2023-07-24T11:10:17;20.50;99.90
7472;DHT22;3777;48.722;8.110;2023-07-24T11:12:45;20.60;99.90
7472;DHT22;3777;48.722;8.110;2023-07-24T11:15:13;21.00;99.90
7472;DHT22;3777;48.722;8.110;2023-07-24T11:17:41;21.20;99.90
7472;DHT22;3777;48.722;8.110;2023-07-24T11:20:10;21.60;99.90
7472;DHT22;3777;48.722;8.110;2023-07-24T11:22:43;22.00;99.90
7472;DHT22;3777;48.722;8.110;2023-07-24T11:25:11;22.30;99.90
7472;DHT22;3777;48.722;8.110;2023-07-24T11:27:39;22.80;99.90
7472;DHT22;3777;48.722;8.110;2023-07-24T11:30:08;23.00;99.90
7472;DHT22;3777;48.722;8.110;2023-07-24T11:32:35;23.00;99.90
7472;DHT22;3777;48.722;8.110;2023-07-24T11:35:05;23.00;99.90
7472;DHT22;3777;48.722;8.110;2023-07-24T11:37:33;22.80;99.90
7472;DHT22;3777;48.722;8.110;2023-07-24T11:40:03;22.50;99.90
7472;DHT22;3777;48.722;8.110;2023-07-24T11:42:37;22.30;99.90
7472;DHT22;3777;48.722;8.110;2023-07-24T11:45:06;22.00;99.90
7472;DHT22;3777;48.722;8.110;2023-07-24T11:47:42;21.80;99.90
7472;DHT22;3777;48.722;8.110;2023-07-24T11:50:09;21.60;99.90
7472;DHT22;3777;48.722;8.110;2023-07-24T11:52:41;21.60;99.90
7472;DHT22;3777;48.722;8.110;2023-07-24T11:55:11;21.60;99.90
7472;DHT22;3777;48.722;8.110;2023-07-24T11:57:38;21.40;99.90
7472;DHT22;3777;48.722;8.110;2023-07-24T12:00:17;21.30;99.90
7472;DHT22;3777;48.722;8.110;2023-07-24T12:02:44;21.10;99.90
7472;DHT22;3777;48.722;8.110;2023-07-24T12:05:11;20.90;99.90
7472;DHT22;3777;48.722;8.110;2023-07-24T12:07:38;20.80;99.90
7472;DHT22;3777;48.722;8.110;2023-07-24T12:10:06;20.60;99.90
7472;DHT22;3777;48.722;8.110;2023-07-24T12:12:39;20.50;99.90
7472;DHT22;3777;48.722;8.110;2023-07-24T12:15:07;20.30;99.90
7472;DHT22;3777;48.722;8.110;2023-07-24T12:17:35;20.10;99.90
7472;DHT22;3777;48.722;8.110;2023-07-24T12:20:02;20.10;99.90
7472;DHT22;3777;48.722;8.110;2023-07-24T12:22:30;20.00;99.90
7472;DHT22;3777;48.722;8.110;2023-07-24T12:24:57;20.00;99.90
7472;DHT22;3777;48.722;8.110;2023-07-24T12:27:24;20.20;99.90
7472;DHT22;3777;48.722;8.110;2023-07-24T12:29:52;20.30;99.90
7472;DHT22;3777;48.722;8.110;2023-07-24T12:32:20;20.40;99.90
7472;DHT22;3777;48.722;8.110;2023-07-24T12:34:49;20.50;99.90
7472;DHT22;3777;48.722;8.110;2023-07-24T12:37:16;20.60;99.90
7472;DHT22;3777;48.722;8.110;2023-07-24T12:39:44;20.80;99.90
7472;DHT22;3777;48.722;8.110;2023-07-24T12:42:11;20.80;99.90
7472;DHT22;3777;48.722;8.110;2023-07-24T12:44:38;21.00;99.90
7472;DHT22;3777;48.722;8.110;2023-07-24T12:47:06;21.20;99.90
7472;DHT22;3777;48.722;8.110;2023-07-24T12:49:33;21.30;99.90
7472;DHT22;3777;48.722;8.110;2023-07-24T12:52:00;21.50;99.90
7472;DHT22;3777;48.722;8.110;2023-07-24T12:54:27;21.70;99.90
7472;DHT22;3777;48.722;8.110;2023-07-24T12:56:54;21.80;99.90
7472;DHT22;3777;48.722;8.110;2023-07-24T12:59:21;21.70;99.90
7472;DHT22;3777;48.722;8.110;2023-07-24T13:01:48;21.90;99.90
7472;DHT22;3777;48.722;8.110;2023-07-24T13:04:16;21.90;99.90
7472;DHT22;3777;48.722;8.110;2023-07-24T13:06:43;22.10;99.90
7472;DHT22;3777;48.722;8.110;2023-07-24T13:09:10;22.40;99.90
7472;DHT22;3777;48.722;8.110;2023-07-24T13:11:37;22.90;99.90
7472;DHT22;3777;48.722;8.110;2023-07-24T13:14:04;23.20;99.90
7472;DHT22;3777;48.722;8.110;2023-07-24T13:16:31;23.40;99.90
7472;DHT22;3777;48.722;8.110;2023-07-24T13:18:58;23.60;99.90
7472;DHT22;3777;48.722;8.110;2023-07-24T13:21:27;23.70;99.90
7472;DHT22;3777;48.722;8.110;2023-07-24T13:23:54;23.60;99.90
7472;DHT22;3777;48.722;8.110;2023-07-24T13:26:21;23.70;99.90
7472;DHT22;3777;48.722;8.110;2023-07-24T13:28:48;23.80;99.90
7472;DHT22;3777;48.722;8.110;2023-07-24T13:31:17;23.80;99.90
7472;DHT22;3777;48.722;8.110;2023-07-24T13:33:45;23.70;99.90
7472;DHT22;3777;48.722;8.110;2023-07-24T13:36:12;23.80;99.90
7472;DHT22;3777;48.722;8.110;2023-07-24T13:38:41;23.90;99.90
7472;DHT22;3777;48.722;8.110;2023-07-24T13:41:08;23.90;99.90
7472;DHT22;3777;48.722;8.110;2023-07-24T13:43:35;23.90;99.90
7472;DHT22;3777;48.722;8.110;2023-07-24T13:46:02;24.00;99.90
7472;DHT22;3777;48.722;8.110;2023-07-24T13:48:30;24.00;99.90
7472;DHT22;3777;48.722;8.110;2023-07-24T13:50:57;24.10;99.90
7472;DHT22;3777;48.722;8.110;2023-07-24T13:53:24;24.20;99.90
7472;DHT22;3777;48.722;8.110;2023-07-24T13:55:52;24.30;99.90
7472;DHT22;3777;48.722;8.110;2023-07-24T13:58:20;24.40;99.90
7472;DHT22;3777;48.722;8.110;2023-07-24T14:00:47;24.50;99.90
7472;DHT22;3777;48.722;8.110;2023-07-24T14:03:14;24.60;99.90
7472;DHT22;3777;48.722;8.110;2023-07-24T14:05:41;24.80;99.90
7472;DHT22;3777;48.722;8.110;2023-07-24T14:08:08;24.70;99.90
7472;DHT22;3777;48.722;8.110;2023-07-24T14:10:34;24.70;99.90
7472;DHT22;3777;48.722;8.110;2023-07-24T14:13:03;24.70;99.90
7472;DHT22;3777;48.722;8.110;2023-07-24T14:15:30;24.60;99.90
7472;DHT22;3777;48.722;8.110;2023-07-24T14:17:57;24.70;99.90
7472;DHT22;3777;48.722;8.110;2023-07-24T14:20:24;24.60;99.90
7472;DHT22;3777;48.722;8.110;2023-07-24T14:22:51;24.70;99.90
7472;DHT22;3777;48.722;8.110;2023-07-24T14:25:18;24.80;99.90
7472;DHT22;3777;48.722;8.110;2023-07-24T14:27:45;24.80;99.90
7472;DHT22;3777;48.722;8.110;2023-07-24T14:30:13;24.80;99.90
7472;DHT22;3777;48.722;8.110;2023-07-24T14:32:40;24.90;99.90
7472;DHT22;3777;48.722;8.110;2023-07-24T14:35:07;25.00;99.90
7472;DHT22;3777;48.722;8.110;2023-07-24T14:37:34;25.00;99.90
7472;DHT22;3777;48.722;8.110;2023-07-24T14:40:01;25.10;99.90
7472;DHT22;3777;48.722;8.110;2023-07-24T14:42:29;25.00;99.90
7472;DHT22;3777;48.722;8.110;2023-07-24T14:44:56;25.00;99.90
7472;DHT22;3777;48.722;8.110;2023-07-24T14:47:29;24.80;99.90
7472;DHT22;3777;48.722;8.110;2023-07-24T14:49:57;24.60;99.90
7472;DHT22;3777;48.722;8.110;2023-07-24T14:52:24;24.70;99.90
7472;DHT22;3777;48.722;8.110;2023-07-24T14:54:51;24.80;99.90
7472;DHT22;3777;48.722;8.110;2023-07-24T14:57:18;24.80;99.90
7472;DHT22;3777;48.722;8.110;2023-07-24T14:59:45;24.80;99.90
7472;DHT22;3777;48.722;8.110;2023-07-24T15:02:13;24.70;99.90
7472;DHT22;3777;48.722;8.110;2023-07-24T15:04:41;24.60;99.90
7472;DHT22;3777;48.722;8.110;2023-07-24T15:07:08;24.40;99.90
7472;DHT22;3777;48.722;8.110;2023-07-24T15:09:35;24.30;99.90
7472;DHT22;3777;48.722;8.110;2023-07-24T15:12:02;24.20;99.90
7472;DHT22;3777;48.722;8.110;2023-07-24T15:14:29;24.20;99.90
7472;DHT22;3777;48.722;8.110;2023-07-24T15:16:56;24.20;99.90
7472;DHT22;3777;48.722;8.110;2023-07-24T15:19:23;24.20;99.90
7472;DHT22;3777;48.722;8.110;2023-07-24T15:21:51;24.00;99.90
7472;DHT22;3777;48.722;8.110;2023-07-24T15:24:18;23.80;99.90
7472;DHT22;3777;48.722;8.110;2023-07-24T15:26:45;23.20;99.90
7472;DHT22;3777;48.722;8.110;2023-07-24T15:29:13;22.60;99.90
7472;DHT22;3777;48.722;8.110;2023-07-24T15:31:42;22.20;99.90
7472;DHT22;3777;48.722;8.110;2023-07-24T15:34:09;21.90;99.90
7472;DHT22;3777;48.722;8.110;2023-07-24T15:36:36;21.50;99.90
7472;DHT22;3777;48.722;8.110;2023-07-24T15:39:04;21.30;99.90
7472;DHT22;3777;48.722;8.110;2023-07-24T15:41:32;21.20;99.90
7472;DHT22;3777;48.722;8.110;2023-07-24T15:43:59;21.10;99.90
7472;DHT22;3777;48.722;8.110;2023-07-24T15:46:26;21.00;99.90
7472;DHT22;3777;48.722;8.110;2023-07-24T15:48:57;20.90;99.90
7472;DHT22;3777;48.722;8.110;2023-07-24T15:51:24;20.90;99.90
7472;DHT22;3777;48.722;8.110;2023-07-24T15:53:52;20.70;99.90
7472;DHT22;3777;48.722;8.110;2023-07-24T15:56:20;20.80;99.90
7472;DHT22;3777;48.722;8.110;2023-07-24T15:58:49;20.90;99.90
7472;DHT22;3777;48.722;8.110;2023-07-24T16:01:16;20.80;99.90
7472;DHT22;3777;48.722;8.110;2023-07-24T16:03:44;20.70;99.90
7472;DHT22;3777;48.722;8.110;2023-07-24T16:06:11;20.60;99.90